Terminal Aerodrome Forecast
Issued by NWS Raleigh/Durham, NC

Home | Current Version | Previous Version | Text Only | Print | Product List | Glossary On
Versions: 1 2 3 4 5 6 7 8 9 10 11 12 13 14 15 16 17 18 19 20 21 22 23 24 25 26
000
FTUS42 KRAH 232320
TAFRDU
TAF
KRDU 232320Z 2400/2424 05006KT P6SM BKN007 OVC025
      TEMPO 2400/2403 3SM -SHRA BR OVC005
     FM240300 05005KT 5SM BR OVC005
      TEMPO 2403/2406 2SM -RA OVC004
     FM240900 VRB04KT 1SM BR OVC002
     FM241100 VRB04KT 1/2SM -DZ FG OVC002
     FM241300 10006KT 3SM BR OVC004
     FM241800 13010KT P6SM BKN012=

USA.gov is the U.S. government's official web portal to all federal, state and local government web resources and services.